sensor_id;sensor_type;location;lat;lon;timestamp;P1;durP1;ratioP1;P2;durP2;ratioP2
58637;SDS011;54976;51.510;7.522;2024-01-15T00:01:12;39.22;;;17.25;;
58637;SDS011;54976;51.510;7.522;2024-01-15T00:04:13;50.75;;;19.52;;
58637;SDS011;54976;51.510;7.522;2024-01-15T00:07:14;56.30;;;21.15;;
58637;SDS011;54976;51.510;7.522;2024-01-15T00:10:14;53.72;;;22.02;;
58637;SDS011;54976;51.510;7.522;2024-01-15T00:13:15;43.10;;;18.83;;
58637;SDS011;54976;51.510;7.522;2024-01-15T00:16:15;60.15;;;22.13;;
58637;SDS011;54976;51.510;7.522;2024-01-15T00:19:16;53.08;;;20.90;;
58637;SDS011;54976;51.510;7.522;2024-01-15T00:22:17;59.95;;;23.25;;
58637;SDS011;54976;51.510;7.522;2024-01-15T00:25:18;58.35;;;21.25;;
58637;SDS011;54976;51.510;7.522;2024-01-15T00:28:19;54.08;;;20.88;;
58637;SDS011;54976;51.510;7.522;2024-01-15T00:31:19;63.03;;;23.90;;
58637;SDS011;54976;51.510;7.522;2024-01-15T00:34:20;59.20;;;23.20;;
58637;SDS011;54976;51.510;7.522;2024-01-15T00:37:20;59.28;;;24.13;;
58637;SDS011;54976;51.510;7.522;2024-01-15T00:40:21;45.72;;;19.27;;
58637;SDS011;54976;51.510;7.522;2024-01-15T00:43:22;49.88;;;21.25;;
58637;SDS011;54976;51.510;7.522;2024-01-15T00:46:22;53.97;;;22.55;;
58637;SDS011;54976;51.510;7.522;2024-01-15T00:49:23;59.00;;;23.65;;
58637;SDS011;54976;51.510;7.522;2024-01-15T00:52:24;52.08;;;22.13;;
58637;SDS011;54976;51.510;7.522;2024-01-15T00:55:24;63.55;;;25.58;;
58637;SDS011;54976;51.510;7.522;2024-01-15T00:58:25;60.50;;;24.35;;
58637;SDS011;54976;51.510;7.522;2024-01-15T01:01:26;58.03;;;22.35;;
58637;SDS011;54976;51.510;7.522;2024-01-15T01:04:27;62.45;;;24.25;;
58637;SDS011;54976;51.510;7.522;2024-01-15T01:07:27;66.80;;;24.02;;
58637;SDS011;54976;51.510;7.522;2024-01-15T01:10:28;56.88;;;22.75;;
58637;SDS011;54976;51.510;7.522;2024-01-15T01:13:29;66.20;;;24.75;;
58637;SDS011;54976;51.510;7.522;2024-01-15T01:16:29;60.28;;;24.10;;
58637;SDS011;54976;51.510;7.522;2024-01-15T01:19:31;67.68;;;24.17;;
58637;SDS011;54976;51.510;7.522;2024-01-15T01:22:32;59.22;;;23.98;;
58637;SDS011;54976;51.510;7.522;2024-01-15T01:25:32;62.40;;;23.55;;
58637;SDS011;54976;51.510;7.522;2024-01-15T01:28:33;61.00;;;20.65;;
58637;SDS011;54976;51.510;7.522;2024-01-15T01:31:33;56.15;;;23.40;;
58637;SDS011;54976;51.510;7.522;2024-01-15T01:34:39;52.60;;;19.35;;
58637;SDS011;54976;51.510;7.522;2024-01-15T01:37:43;57.60;;;22.15;;
58637;SDS011;54976;51.510;7.522;2024-01-15T01:40:44;55.70;;;23.45;;
58637;SDS011;54976;51.510;7.522;2024-01-15T01:43:45;52.72;;;19.23;;
58637;SDS011;54976;51.510;7.522;2024-01-15T01:46:45;48.17;;;17.60;;
58637;SDS011;54976;51.510;7.522;2024-01-15T01:49:46;50.63;;;21.13;;
58637;SDS011;54976;51.510;7.522;2024-01-15T01:52:47;53.08;;;19.02;;
58637;SDS011;54976;51.510;7.522;2024-01-15T01:55:48;47.95;;;19.25;;
58637;SDS011;54976;51.510;7.522;2024-01-15T01:58:50;57.22;;;22.80;;
58637;SDS011;54976;51.510;7.522;2024-01-15T02:01:51;55.25;;;22.50;;
58637;SDS011;54976;51.510;7.522;2024-01-15T02:04:55;48.30;;;20.38;;
58637;SDS011;54976;51.510;7.522;2024-01-15T02:07:56;59.53;;;22.00;;
58637;SDS011;54976;51.510;7.522;2024-01-15T02:10:57;50.75;;;19.30;;
58637;SDS011;54976;51.510;7.522;2024-01-15T02:13:57;49.28;;;20.00;;
58637;SDS011;54976;51.510;7.522;2024-01-15T02:16:58;39.83;;;19.45;;
58637;SDS011;54976;51.510;7.522;2024-01-15T02:19:59;43.67;;;17.75;;
58637;SDS011;54976;51.510;7.522;2024-01-15T02:26:12;50.53;;;21.25;;
58637;SDS011;54976;51.510;7.522;2024-01-15T02:29:14;52.80;;;20.60;;
58637;SDS011;54976;51.510;7.522;2024-01-15T02:32:15;46.95;;;20.63;;
58637;SDS011;54976;51.510;7.522;2024-01-15T02:35:16;39.17;;;17.63;;
58637;SDS011;54976;51.510;7.522;2024-01-15T02:38:16;38.92;;;17.20;;
58637;SDS011;54976;51.510;7.522;2024-01-15T02:41:17;45.30;;;19.70;;
58637;SDS011;54976;51.510;7.522;2024-01-15T02:44:18;41.00;;;17.75;;
58637;SDS011;54976;51.510;7.522;2024-01-15T02:47:18;43.90;;;19.58;;
58637;SDS011;54976;51.510;7.522;2024-01-15T02:50:19;44.25;;;17.75;;
58637;SDS011;54976;51.510;7.522;2024-01-15T02:53:20;46.13;;;17.63;;
58637;SDS011;54976;51.510;7.522;2024-01-15T02:56:20;34.05;;;16.58;;
58637;SDS011;54976;51.510;7.522;2024-01-15T02:59:21;42.85;;;16.77;;
58637;SDS011;54976;51.510;7.522;2024-01-15T03:02:21;32.28;;;14.68;;
58637;SDS011;54976;51.510;7.522;2024-01-15T03:05:22;36.53;;;16.52;;
58637;SDS011;54976;51.510;7.522;2024-01-15T03:08:23;42.65;;;18.20;;
58637;SDS011;54976;51.510;7.522;2024-01-15T03:11:24;42.03;;;16.90;;
58637;SDS011;54976;51.510;7.522;2024-01-15T03:14:25;41.13;;;17.90;;
58637;SDS011;54976;51.510;7.522;2024-01-15T03:17:26;44.83;;;19.48;;
58637;SDS011;54976;51.510;7.522;2024-01-15T03:20:27;41.83;;;16.83;;
58637;SDS011;54976;51.510;7.522;2024-01-15T03:23:27;37.90;;;17.27;;
58637;SDS011;54976;51.510;7.522;2024-01-15T03:26:28;32.78;;;14.63;;
58637;SDS011;54976;51.510;7.522;2024-01-15T03:29:28;41.28;;;16.48;;
58637;SDS011;54976;51.510;7.522;2024-01-15T03:32:29;43.25;;;15.85;;
58637;SDS011;54976;51.510;7.522;2024-01-15T03:35:29;51.22;;;18.25;;
58637;SDS011;54976;51.510;7.522;2024-01-15T03:38:30;38.45;;;16.52;;
58637;SDS011;54976;51.510;7.522;2024-01-15T03:41:31;41.85;;;16.58;;
58637;SDS011;54976;51.510;7.522;2024-01-15T03:44:32;37.72;;;15.75;;
58637;SDS011;54976;51.510;7.522;2024-01-15T03:47:32;37.65;;;16.02;;
58637;SDS011;54976;51.510;7.522;2024-01-15T03:50:33;39.88;;;15.88;;
58637;SDS011;54976;51.510;7.522;2024-01-15T03:53:34;37.50;;;15.98;;
58637;SDS011;54976;51.510;7.522;2024-01-15T03:56:35;32.15;;;13.70;;
58637;SDS011;54976;51.510;7.522;2024-01-15T03:59:35;31.83;;;12.65;;
58637;SDS011;54976;51.510;7.522;2024-01-15T04:02:36;35.80;;;15.40;;
58637;SDS011;54976;51.510;7.522;2024-01-15T04:05:36;34.10;;;14.60;;
58637;SDS011;54976;51.510;7.522;2024-01-15T04:08:38;33.95;;;12.80;;
58637;SDS011;54976;51.510;7.522;2024-01-15T04:11:38;33.17;;;15.43;;
58637;SDS011;54976;51.510;7.522;2024-01-15T04:14:40;31.88;;;14.57;;
58637;SDS011;54976;51.510;7.522;2024-01-15T04:17:40;30.55;;;15.32;;
58637;SDS011;54976;51.510;7.522;2024-01-15T04:20:41;32.15;;;14.95;;
58637;SDS011;54976;51.510;7.522;2024-01-15T04:23:41;28.55;;;14.65;;
58637;SDS011;54976;51.510;7.522;2024-01-15T04:26:42;42.97;;;16.25;;
58637;SDS011;54976;51.510;7.522;2024-01-15T04:29:43;27.27;;;11.70;;
58637;SDS011;54976;51.510;7.522;2024-01-15T04:32:44;38.22;;;16.25;;
58637;SDS011;54976;51.510;7.522;2024-01-15T04:35:45;29.00;;;13.52;;
58637;SDS011;54976;51.510;7.522;2024-01-15T04:38:45;38.65;;;16.48;;
58637;SDS011;54976;51.510;7.522;2024-01-15T04:41:46;30.88;;;15.00;;
58637;SDS011;54976;51.510;7.522;2024-01-15T04:44:47;31.00;;;15.05;;
58637;SDS011;54976;51.510;7.522;2024-01-15T04:47:47;33.83;;;14.00;;
58637;SDS011;54976;51.510;7.522;2024-01-15T04:50:48;33.20;;;15.00;;
58637;SDS011;54976;51.510;7.522;2024-01-15T04:53:49;37.58;;;14.68;;
58637;SDS011;54976;51.510;7.522;2024-01-15T04:56:49;34.33;;;14.40;;
58637;SDS011;54976;51.510;7.522;2024-01-15T04:59:50;31.63;;;14.82;;
58637;SDS011;54976;51.510;7.522;2024-01-15T05:02:51;26.30;;;14.45;;
58637;SDS011;54976;51.510;7.522;2024-01-15T05:05:51;32.22;;;13.80;;
58637;SDS011;54976;51.510;7.522;2024-01-15T05:08:52;30.35;;;14.23;;
58637;SDS011;54976;51.510;7.522;2024-01-15T05:11:52;31.20;;;14.10;;
58637;SDS011;54976;51.510;7.522;2024-01-15T05:14:53;35.30;;;15.27;;
58637;SDS011;54976;51.510;7.522;2024-01-15T05:17:54;29.63;;;12.35;;
58637;SDS011;54976;51.510;7.522;2024-01-15T05:20:54;30.10;;;13.05;;
58637;SDS011;54976;51.510;7.522;2024-01-15T05:23:55;33.17;;;13.73;;
58637;SDS011;54976;51.510;7.522;2024-01-15T05:26:55;36.53;;;15.23;;
58637;SDS011;54976;51.510;7.522;2024-01-15T05:29:56;26.88;;;14.32;;
58637;SDS011;54976;51.510;7.522;2024-01-15T05:32:56;33.15;;;14.77;;
58637;SDS011;54976;51.510;7.522;2024-01-15T05:36:01;31.23;;;13.67;;
58637;SDS011;54976;51.510;7.522;2024-01-15T05:39:02;33.50;;;15.95;;
58637;SDS011;54976;51.510;7.522;2024-01-15T05:42:03;35.00;;;14.07;;
58637;SDS011;54976;51.510;7.522;2024-01-15T05:45:04;29.52;;;13.30;;
58637;SDS011;54976;51.510;7.522;2024-01-15T05:48:05;30.13;;;14.70;;
58637;SDS011;54976;51.510;7.522;2024-01-15T05:51:06;30.27;;;14.23;;
58637;SDS011;54976;51.510;7.522;2024-01-15T05:54:06;30.90;;;13.68;;
58637;SDS011;54976;51.510;7.522;2024-01-15T05:57:07;28.70;;;13.45;;
58637;SDS011;54976;51.510;7.522;2024-01-15T06:00:07;29.48;;;12.60;;
58637;SDS011;54976;51.510;7.522;2024-01-15T06:03:08;29.55;;;13.40;;
58637;SDS011;54976;51.510;7.522;2024-01-15T06:06:09;32.92;;;14.40;;
58637;SDS011;54976;51.510;7.522;2024-01-15T06:09:10;25.15;;;13.75;;
58637;SDS011;54976;51.510;7.522;2024-01-15T06:12:11;29.50;;;13.93;;
58637;SDS011;54976;51.510;7.522;2024-01-15T06:15:11;33.08;;;13.10;;
58637;SDS011;54976;51.510;7.522;2024-01-15T06:18:13;33.15;;;14.57;;
58637;SDS011;54976;51.510;7.522;2024-01-15T06:21:13;33.65;;;12.98;;
58637;SDS011;54976;51.510;7.522;2024-01-15T06:24:14;26.00;;;13.77;;
58637;SDS011;54976;51.510;7.522;2024-01-15T06:27:15;31.77;;;13.75;;
58637;SDS011;54976;51.510;7.522;2024-01-15T06:30:16;26.02;;;13.35;;
58637;SDS011;54976;51.510;7.522;2024-01-15T06:33:16;36.05;;;14.75;;
58637;SDS011;54976;51.510;7.522;2024-01-15T06:36:17;27.02;;;12.20;;
58637;SDS011;54976;51.510;7.522;2024-01-15T06:39:18;29.80;;;13.27;;
58637;SDS011;54976;51.510;7.522;2024-01-15T06:42:18;32.95;;;14.40;;
58637;SDS011;54976;51.510;7.522;2024-01-15T06:45:19;31.65;;;12.90;;
58637;SDS011;54976;51.510;7.522;2024-01-15T06:48:19;24.27;;;11.95;;
58637;SDS011;54976;51.510;7.522;2024-01-15T06:51:20;30.02;;;14.68;;
58637;SDS011;54976;51.510;7.522;2024-01-15T06:54:21;27.75;;;14.77;;
58637;SDS011;54976;51.510;7.522;2024-01-15T06:57:21;35.60;;;14.27;;
58637;SDS011;54976;51.510;7.522;2024-01-15T07:00:22;17.05;;;9.32;;
58637;SDS011;54976;51.510;7.522;2024-01-15T07:03:22;27.13;;;13.73;;
58637;SDS011;54976;51.510;7.522;2024-01-15T07:06:23;24.23;;;11.30;;
58637;SDS011;54976;51.510;7.522;2024-01-15T07:09:24;32.80;;;14.07;;
58637;SDS011;54976;51.510;7.522;2024-01-15T07:12:24;29.23;;;14.02;;
58637;SDS011;54976;51.510;7.522;2024-01-15T07:15:25;28.85;;;15.25;;
58637;SDS011;54976;51.510;7.522;2024-01-15T07:18:25;28.98;;;13.38;;
58637;SDS011;54976;51.510;7.522;2024-01-15T07:21:26;33.08;;;14.45;;
58637;SDS011;54976;51.510;7.522;2024-01-15T07:24:26;33.88;;;14.23;;
58637;SDS011;54976;51.510;7.522;2024-01-15T07:27:27;21.75;;;11.07;;
58637;SDS011;54976;51.510;7.522;2024-01-15T07:30:28;23.45;;;14.00;;
58637;SDS011;54976;51.510;7.522;2024-01-15T07:33:28;29.15;;;14.30;;
58637;SDS011;54976;51.510;7.522;2024-01-15T07:36:29;25.40;;;13.23;;
58637;SDS011;54976;51.510;7.522;2024-01-15T07:39:29;29.15;;;15.13;;
58637;SDS011;54976;51.510;7.522;2024-01-15T07:42:30;26.48;;;14.45;;
58637;SDS011;54976;51.510;7.522;2024-01-15T07:45:31;26.98;;;12.50;;
58637;SDS011;54976;51.510;7.522;2024-01-15T07:48:32;30.70;;;13.88;;
58637;SDS011;54976;51.510;7.522;2024-01-15T07:51:32;26.98;;;13.77;;
58637;SDS011;54976;51.510;7.522;2024-01-15T07:54:33;15.48;;;8.43;;
58637;SDS011;54976;51.510;7.522;2024-01-15T07:57:33;18.80;;;10.38;;
58637;SDS011;54976;51.510;7.522;2024-01-15T08:00:35;23.13;;;12.02;;
58637;SDS011;54976;51.510;7.522;2024-01-15T08:03:36;22.58;;;11.63;;
58637;SDS011;54976;51.510;7.522;2024-01-15T08:06:37;20.33;;;10.38;;
58637;SDS011;54976;51.510;7.522;2024-01-15T08:09:37;17.15;;;9.07;;
58637;SDS011;54976;51.510;7.522;2024-01-15T08:12:38;13.13;;;7.72;;
58637;SDS011;54976;51.510;7.522;2024-01-15T08:15:38;14.82;;;8.73;;
58637;SDS011;54976;51.510;7.522;2024-01-15T08:18:40;14.00;;;8.07;;
58637;SDS011;54976;51.510;7.522;2024-01-15T08:21:42;14.88;;;8.38;;
58637;SDS011;54976;51.510;7.522;2024-01-15T08:24:43;13.10;;;7.20;;
58637;SDS011;54976;51.510;7.522;2024-01-15T08:27:44;14.57;;;7.40;;
58637;SDS011;54976;51.510;7.522;2024-01-15T08:30:45;14.80;;;7.95;;
58637;SDS011;54976;51.510;7.522;2024-01-15T08:33:45;13.50;;;7.95;;
58637;SDS011;54976;51.510;7.522;2024-01-15T08:36:46;14.52;;;7.70;;
58637;SDS011;54976;51.510;7.522;2024-01-15T08:39:47;15.05;;;7.70;;
58637;SDS011;54976;51.510;7.522;2024-01-15T08:42:47;14.68;;;6.05;;
58637;SDS011;54976;51.510;7.522;2024-01-15T08:45:49;10.63;;;6.40;;
58637;SDS011;54976;51.510;7.522;2024-01-15T08:48:50;13.02;;;6.82;;
58637;SDS011;54976;51.510;7.522;2024-01-15T08:51:51;15.43;;;7.28;;
58637;SDS011;54976;51.510;7.522;2024-01-15T08:54:52;13.57;;;7.18;;
58637;SDS011;54976;51.510;7.522;2024-01-15T08:57:52;15.73;;;8.30;;
58637;SDS011;54976;51.510;7.522;2024-01-15T09:00:53;17.33;;;8.63;;
58637;SDS011;54976;51.510;7.522;2024-01-15T09:03:53;16.80;;;9.45;;
58637;SDS011;54976;51.510;7.522;2024-01-15T09:06:54;19.35;;;9.73;;
58637;SDS011;54976;51.510;7.522;2024-01-15T09:09:55;23.67;;;11.85;;
58637;SDS011;54976;51.510;7.522;2024-01-15T09:12:55;19.63;;;11.10;;
58637;SDS011;54976;51.510;7.522;2024-01-15T09:15:56;21.08;;;11.75;;
58637;SDS011;54976;51.510;7.522;2024-01-15T09:18:57;21.05;;;12.02;;
58637;SDS011;54976;51.510;7.522;2024-01-15T09:21:57;18.90;;;11.48;;
58637;SDS011;54976;51.510;7.522;2024-01-15T09:24:58;20.48;;;11.07;;
58637;SDS011;54976;51.510;7.522;2024-01-15T09:27:59;20.55;;;12.32;;
58637;SDS011;54976;51.510;7.522;2024-01-15T09:30:59;20.80;;;12.43;;
58637;SDS011;54976;51.510;7.522;2024-01-15T09:34:00;16.92;;;10.70;;
58637;SDS011;54976;51.510;7.522;2024-01-15T09:37:02;22.23;;;12.23;;
58637;SDS011;54976;51.510;7.522;2024-01-15T09:40:05;16.23;;;9.93;;
58637;SDS011;54976;51.510;7.522;2024-01-15T09:43:08;16.65;;;10.68;;
58637;SDS011;54976;51.510;7.522;2024-01-15T09:46:08;22.30;;;11.98;;
58637;SDS011;54976;51.510;7.522;2024-01-15T09:49:10;16.90;;;10.77;;
58637;SDS011;54976;51.510;7.522;2024-01-15T09:52:10;16.98;;;9.52;;
58637;SDS011;54976;51.510;7.522;2024-01-15T09:55:11;21.98;;;12.05;;
58637;SDS011;54976;51.510;7.522;2024-01-15T09:58:13;21.23;;;12.60;;
58637;SDS011;54976;51.510;7.522;2024-01-15T10:01:14;22.35;;;11.73;;
58637;SDS011;54976;51.510;7.522;2024-01-15T10:04:16;19.55;;;11.52;;
58637;SDS011;54976;51.510;7.522;2024-01-15T10:07:17;18.05;;;8.00;;
58637;SDS011;54976;51.510;7.522;2024-01-15T10:10:19;15.68;;;9.00;;
58637;SDS011;54976;51.510;7.522;2024-01-15T10:13:22;17.25;;;9.15;;
58637;SDS011;54976;51.510;7.522;2024-01-15T10:16:23;8.23;;;5.63;;
58637;SDS011;54976;51.510;7.522;2024-01-15T10:19:23;10.05;;;5.80;;
58637;SDS011;54976;51.510;7.522;2024-01-15T10:22:24;9.98;;;6.85;;
58637;SDS011;54976;51.510;7.522;2024-01-15T10:25:25;12.60;;;5.93;;
58637;SDS011;54976;51.510;7.522;2024-01-15T10:28:26;15.60;;;7.63;;
58637;SDS011;54976;51.510;7.522;2024-01-15T10:31:28;10.23;;;6.50;;
58637;SDS011;54976;51.510;7.522;2024-01-15T10:34:30;14.18;;;7.20;;
58637;SDS011;54976;51.510;7.522;2024-01-15T10:37:33;13.68;;;8.10;;
58637;SDS011;54976;51.510;7.522;2024-01-15T10:40:34;13.95;;;8.27;;
58637;SDS011;54976;51.510;7.522;2024-01-15T10:43:35;16.02;;;8.35;;
58637;SDS011;54976;51.510;7.522;2024-01-15T10:46:35;14.75;;;8.27;;
58637;SDS011;54976;51.510;7.522;2024-01-15T10:49:37;12.48;;;6.43;;
58637;SDS011;54976;51.510;7.522;2024-01-15T10:52:38;13.88;;;8.05;;
58637;SDS011;54976;51.510;7.522;2024-01-15T10:55:40;14.77;;;8.68;;
58637;SDS011;54976;51.510;7.522;2024-01-15T10:58:42;11.55;;;7.47;;
58637;SDS011;54976;51.510;7.522;2024-01-15T11:01:44;15.55;;;9.63;;
58637;SDS011;54976;51.510;7.522;2024-01-15T11:04:46;17.98;;;9.15;;
58637;SDS011;54976;51.510;7.522;2024-01-15T11:07:47;16.45;;;9.85;;
58637;SDS011;54976;51.510;7.522;2024-01-15T11:10:51;12.40;;;7.72;;
58637;SDS011;54976;51.510;7.522;2024-01-15T11:13:52;16.13;;;9.68;;
58637;SDS011;54976;51.510;7.522;2024-01-15T11:16:53;21.50;;;10.10;;
58637;SDS011;54976;51.510;7.522;2024-01-15T11:20:01;16.77;;;10.38;;
58637;SDS011;54976;51.510;7.522;2024-01-15T11:23:06;18.77;;;9.57;;
58637;SDS011;54976;51.510;7.522;2024-01-15T11:32:33;17.38;;;10.43;;
58637;SDS011;54976;51.510;7.522;2024-01-15T11:35:55;18.00;;;9.48;;
58637;SDS011;54976;51.510;7.522;2024-01-15T11:38:54;21.38;;;10.63;;
58637;SDS011;54976;51.510;7.522;2024-01-15T11:41:59;18.10;;;9.65;;
58637;SDS011;54976;51.510;7.522;2024-01-15T11:45:01;16.17;;;9.13;;
58637;SDS011;54976;51.510;7.522;2024-01-15T11:51:12;8.10;;;5.55;;
58637;SDS011;54976;51.510;7.522;2024-01-15T11:54:13;17.55;;;9.05;;
58637;SDS011;54976;51.510;7.522;2024-01-15T11:57:18;14.98;;;8.68;;
58637;SDS011;54976;51.510;7.522;2024-01-15T12:00:27;12.13;;;6.93;;
58637;SDS011;54976;51.510;7.522;2024-01-15T12:03:28;13.55;;;8.15;;
58637;SDS011;54976;51.510;7.522;2024-01-15T12:06:34;13.75;;;6.55;;
58637;SDS011;54976;51.510;7.522;2024-01-15T12:09:34;13.88;;;7.72;;
58637;SDS011;54976;51.510;7.522;2024-01-15T12:12:57;19.13;;;7.57;;
58637;SDS011;54976;51.510;7.522;2024-01-15T12:16:14;7.82;;;4.72;;
58637;SDS011;54976;51.510;7.522;2024-01-15T12:19:15;12.52;;;6.93;;
58637;SDS011;54976;51.510;7.522;2024-01-15T12:22:16;12.48;;;6.88;;
58637;SDS011;54976;51.510;7.522;2024-01-15T12:25:17;13.52;;;7.45;;
58637;SDS011;54976;51.510;7.522;2024-01-15T12:28:17;10.30;;;6.68;;
58637;SDS011;54976;51.510;7.522;2024-01-15T12:31:18;11.00;;;6.88;;
58637;SDS011;54976;51.510;7.522;2024-01-15T12:34:19;12.20;;;6.07;;
58637;SDS011;54976;51.510;7.522;2024-01-15T12:37:20;12.82;;;5.97;;
58637;SDS011;54976;51.510;7.522;2024-01-15T12:40:21;11.63;;;5.72;;
58637;SDS011;54976;51.510;7.522;2024-01-15T12:43:23;9.57;;;5.57;;
58637;SDS011;54976;51.510;7.522;2024-01-15T12:46:23;7.65;;;5.10;;
58637;SDS011;54976;51.510;7.522;2024-01-15T12:49:24;11.50;;;6.30;;
58637;SDS011;54976;51.510;7.522;2024-01-15T12:52:28;14.88;;;6.13;;
58637;SDS011;54976;51.510;7.522;2024-01-15T12:55:29;9.02;;;5.18;;
58637;SDS011;54976;51.510;7.522;2024-01-15T12:58:30;11.95;;;5.47;;
58637;SDS011;54976;51.510;7.522;2024-01-15T13:01:30;9.50;;;6.78;;
58637;SDS011;54976;51.510;7.522;2024-01-15T13:04:32;14.20;;;6.97;;
58637;SDS011;54976;51.510;7.522;2024-01-15T13:07:32;13.25;;;6.97;;
58637;SDS011;54976;51.510;7.522;2024-01-15T13:10:33;14.77;;;6.93;;
58637;SDS011;54976;51.510;7.522;2024-01-15T13:13:34;15.13;;;7.25;;
58637;SDS011;54976;51.510;7.522;2024-01-15T13:16:34;9.05;;;5.88;;
58637;SDS011;54976;51.510;7.522;2024-01-15T13:19:35;9.75;;;6.28;;
58637;SDS011;54976;51.510;7.522;2024-01-15T13:22:35;31.88;;;14.43;;
58637;SDS011;54976;51.510;7.522;2024-01-15T13:25:39;11.80;;;7.15;;
58637;SDS011;54976;51.510;7.522;2024-01-15T13:28:39;9.07;;;5.63;;
58637;SDS011;54976;51.510;7.522;2024-01-15T13:31:40;10.32;;;5.47;;
58637;SDS011;54976;51.510;7.522;2024-01-15T13:34:40;10.43;;;5.72;;
58637;SDS011;54976;51.510;7.522;2024-01-15T13:37:41;10.40;;;5.20;;
58637;SDS011;54976;51.510;7.522;2024-01-15T13:40:41;8.93;;;5.85;;
58637;SDS011;54976;51.510;7.522;2024-01-15T13:43:48;11.50;;;6.65;;
58637;SDS011;54976;51.510;7.522;2024-01-15T13:46:49;10.35;;;6.57;;
58637;SDS011;54976;51.510;7.522;2024-01-15T13:49:50;10.02;;;6.28;;
58637;SDS011;54976;51.510;7.522;2024-01-15T13:52:51;13.90;;;7.32;;
58637;SDS011;54976;51.510;7.522;2024-01-15T13:55:51;15.52;;;6.10;;
58637;SDS011;54976;51.510;7.522;2024-01-15T13:58:52;6.57;;;4.03;;
58637;SDS011;54976;51.510;7.522;2024-01-15T14:01:52;7.85;;;4.78;;
58637;SDS011;54976;51.510;7.522;2024-01-15T14:04:53;6.15;;;3.92;;
58637;SDS011;54976;51.510;7.522;2024-01-15T14:07:54;9.23;;;4.10;;
58637;SDS011;54976;51.510;7.522;2024-01-15T14:10:55;11.43;;;5.70;;
58637;SDS011;54976;51.510;7.522;2024-01-15T14:13:57;8.55;;;4.05;;
58637;SDS011;54976;51.510;7.522;2024-01-15T14:16:57;9.52;;;4.68;;
58637;SDS011;54976;51.510;7.522;2024-01-15T14:19:58;8.38;;;4.43;;
58637;SDS011;54976;51.510;7.522;2024-01-15T14:22:58;8.70;;;4.82;;
58637;SDS011;54976;51.510;7.522;2024-01-15T14:25:59;11.88;;;3.97;;
58637;SDS011;54976;51.510;7.522;2024-01-15T14:29:00;6.45;;;4.07;;
58637;SDS011;54976;51.510;7.522;2024-01-15T14:32:00;8.70;;;4.00;;
58637;SDS011;54976;51.510;7.522;2024-01-15T14:35:01;6.30;;;3.58;;
58637;SDS011;54976;51.510;7.522;2024-01-15T14:38:03;5.82;;;3.13;;
58637;SDS011;54976;51.510;7.522;2024-01-15T14:41:04;7.20;;;3.40;;
58637;SDS011;54976;51.510;7.522;2024-01-15T14:44:05;3.60;;;2.90;;
58637;SDS011;54976;51.510;7.522;2024-01-15T14:47:05;3.60;;;2.70;;
58637;SDS011;54976;51.510;7.522;2024-01-15T14:50:07;5.55;;;2.42;;
58637;SDS011;54976;51.510;7.522;2024-01-15T14:53:08;6.78;;;2.60;;
58637;SDS011;54976;51.510;7.522;2024-01-15T14:56:09;6.15;;;2.85;;
58637;SDS011;54976;51.510;7.522;2024-01-15T14:59:09;9.32;;;3.50;;
58637;SDS011;54976;51.510;7.522;2024-01-15T15:02:10;7.50;;;3.95;;
58637;SDS011;54976;51.510;7.522;2024-01-15T15:05:11;10.38;;;4.28;;
58637;SDS011;54976;51.510;7.522;2024-01-15T15:08:13;6.43;;;4.28;;
58637;SDS011;54976;51.510;7.522;2024-01-15T15:11:14;7.82;;;5.35;;
58637;SDS011;54976;51.510;7.522;2024-01-15T15:14:14;8.80;;;4.47;;
58637;SDS011;54976;51.510;7.522;2024-01-15T15:17:15;9.13;;;4.85;;
58637;SDS011;54976;51.510;7.522;2024-01-15T15:20:16;10.70;;;5.72;;
58637;SDS011;54976;51.510;7.522;2024-01-15T15:23:17;10.98;;;5.57;;
58637;SDS011;54976;51.510;7.522;2024-01-15T15:26:18;10.85;;;4.07;;
58637;SDS011;54976;51.510;7.522;2024-01-15T15:29:19;8.02;;;4.10;;
58637;SDS011;54976;51.510;7.522;2024-01-15T15:32:19;10.88;;;4.25;;
58637;SDS011;54976;51.510;7.522;2024-01-15T15:35:20;8.73;;;4.35;;
58637;SDS011;54976;51.510;7.522;2024-01-15T15:38:21;9.20;;;4.03;;
58637;SDS011;54976;51.510;7.522;2024-01-15T15:41:22;5.90;;;3.67;;
58637;SDS011;54976;51.510;7.522;2024-01-15T15:44:25;7.50;;;3.45;;
58637;SDS011;54976;51.510;7.522;2024-01-15T15:47:26;6.60;;;3.00;;
58637;SDS011;54976;51.510;7.522;2024-01-15T15:50:27;10.32;;;3.25;;
58637;SDS011;54976;51.510;7.522;2024-01-15T15:53:27;9.32;;;3.22;;
58637;SDS011;54976;51.510;7.522;2024-01-15T15:56:28;6.60;;;2.55;;
58637;SDS011;54976;51.510;7.522;2024-01-15T15:59:29;6.45;;;2.97;;
58637;SDS011;54976;51.510;7.522;2024-01-15T16:02:29;11.63;;;5.35;;
58637;SDS011;54976;51.510;7.522;2024-01-15T16:05:30;5.72;;;1.85;;
58637;SDS011;54976;51.510;7.522;2024-01-15T16:08:31;16.70;;;2.50;;
58637;SDS011;54976;51.510;7.522;2024-01-15T16:11:31;8.88;;;2.17;;
58637;SDS011;54976;51.510;7.522;2024-01-15T16:14:32;9.32;;;2.10;;
58637;SDS011;54976;51.510;7.522;2024-01-15T16:17:32;7.30;;;2.63;;
58637;SDS011;54976;51.510;7.522;2024-01-15T16:20:33;6.65;;;2.03;;
58637;SDS011;54976;51.510;7.522;2024-01-15T16:23:34;8.70;;;2.55;;
58637;SDS011;54976;51.510;7.522;2024-01-15T16:26:34;9.45;;;2.22;;
58637;SDS011;54976;51.510;7.522;2024-01-15T16:29:35;3.97;;;2.90;;
58637;SDS011;54976;51.510;7.522;2024-01-15T16:32:35;10.75;;;3.70;;
58637;SDS011;54976;51.510;7.522;2024-01-15T16:35:36;12.77;;;4.15;;
58637;SDS011;54976;51.510;7.522;2024-01-15T16:38:37;5.63;;;3.33;;
58637;SDS011;54976;51.510;7.522;2024-01-15T16:41:37;9.57;;;4.32;;
58637;SDS011;54976;51.510;7.522;2024-01-15T16:44:38;8.55;;;3.50;;
58637;SDS011;54976;51.510;7.522;2024-01-15T16:47:39;12.75;;;3.92;;
58637;SDS011;54976;51.510;7.522;2024-01-15T16:50:40;8.77;;;3.88;;
58637;SDS011;54976;51.510;7.522;2024-01-15T16:53:40;13.10;;;4.68;;
58637;SDS011;54976;51.510;7.522;2024-01-15T16:56:41;9.95;;;4.72;;
58637;SDS011;54976;51.510;7.522;2024-01-15T16:59:41;9.80;;;4.85;;
58637;SDS011;54976;51.510;7.522;2024-01-15T17:02:42;12.60;;;5.97;;
58637;SDS011;54976;51.510;7.522;2024-01-15T17:05:43;14.80;;;6.60;;
58637;SDS011;54976;51.510;7.522;2024-01-15T17:08:43;13.10;;;6.43;;
58637;SDS011;54976;51.510;7.522;2024-01-15T17:11:44;13.77;;;7.35;;
58637;SDS011;54976;51.510;7.522;2024-01-15T17:14:44;16.13;;;8.40;;
58637;SDS011;54976;51.510;7.522;2024-01-15T17:17:45;18.00;;;7.85;;
58637;SDS011;54976;51.510;7.522;2024-01-15T17:20:45;17.48;;;8.95;;
58637;SDS011;54976;51.510;7.522;2024-01-15T17:23:46;20.40;;;9.02;;
58637;SDS011;54976;51.510;7.522;2024-01-15T17:26:47;22.67;;;9.63;;
58637;SDS011;54976;51.510;7.522;2024-01-15T17:29:48;27.13;;;10.52;;
58637;SDS011;54976;51.510;7.522;2024-01-15T17:32:50;17.23;;;9.05;;
58637;SDS011;54976;51.510;7.522;2024-01-15T17:35:51;20.17;;;10.13;;
58637;SDS011;54976;51.510;7.522;2024-01-15T17:38:52;16.67;;;9.93;;
58637;SDS011;54976;51.510;7.522;2024-01-15T17:41:53;21.35;;;10.80;;
58637;SDS011;54976;51.510;7.522;2024-01-15T17:44:53;21.33;;;10.25;;
58637;SDS011;54976;51.510;7.522;2024-01-15T17:47:54;21.05;;;9.52;;
58637;SDS011;54976;51.510;7.522;2024-01-15T17:50:54;18.23;;;8.18;;
58637;SDS011;54976;51.510;7.522;2024-01-15T17:53:55;28.85;;;9.60;;
58637;SDS011;54976;51.510;7.522;2024-01-15T17:56:56;17.38;;;9.05;;
58637;SDS011;54976;51.510;7.522;2024-01-15T17:59:57;16.38;;;8.77;;
58637;SDS011;54976;51.510;7.522;2024-01-15T18:02:58;13.82;;;7.55;;